createdAt,value
2019-01-09T00:02:24.293Z,33.60
2019-01-09T00:04:52.927Z,32.70
2019-01-09T00:07:21.598Z,34.30
2019-01-09T00:09:50.162Z,35.00
2019-01-09T00:12:18.887Z,33.70
2019-01-09T00:14:47.488Z,32.20
2019-01-09T00:17:16.120Z,31.50
2019-01-09T00:19:44.751Z,31.50
2019-01-09T00:22:13.441Z,30.50
2019-01-09T00:24:42.065Z,31.10
2019-01-09T00:27:10.699Z,31.80
2019-01-09T00:29:39.370Z,33.20
2019-01-09T00:32:08.020Z,32.00
2019-01-09T00:34:36.588Z,33.60
2019-01-09T00:37:05.122Z,33.80
2019-01-09T00:39:33.678Z,34.00
2019-01-09T00:42:02.232Z,36.20
2019-01-09T00:44:30.909Z,34.10
2019-01-09T00:46:59.536Z,34.20
2019-01-09T00:49:28.174Z,32.40
2019-01-09T00:51:56.773Z,32.90
2019-01-09T00:54:25.340Z,32.00
2019-01-09T00:56:53.966Z,33.70
2019-01-09T00:59:22.648Z,33.70
2019-01-09T01:02:00.415Z,33.10
2019-01-09T01:04:41.042Z,31.50
2019-01-09T01:07:18.785Z,30.10
2019-01-09T01:10:22.544Z,29.30
2019-01-09T01:13:15.384Z,29.00
2019-01-09T01:15:58.838Z,30.40
2019-01-09T01:18:45.421Z,30.50
2019-01-09T01:21:32.425Z,32.40
2019-01-09T01:24:36.367Z,32.20
2019-01-09T01:27:13.656Z,29.40
2019-01-09T01:30:03.272Z,29.10
2019-01-09T01:32:44.049Z,28.70
2019-01-09T01:35:44.811Z,29.30
2019-01-09T01:38:25.347Z,29.30
2019-01-09T01:41:05.760Z,28.90
2019-01-09T01:43:43.201Z,28.90
2019-01-09T01:46:17.592Z,28.20
2019-01-09T01:49:01.358Z,29.80
2019-01-09T01:51:38.527Z,28.50
2019-01-09T01:54:34.742Z,28.50
2019-01-09T01:57:21.452Z,28.50
2019-01-09T01:59:58.831Z,29.00
2019-01-09T02:02:35.887Z,29.40
2019-01-09T02:05:16.873Z,29.70
2019-01-09T02:07:57.430Z,32.00
2019-01-09T02:10:47.722Z,31.10
2019-01-09T02:13:28.051Z,31.40
2019-01-09T02:16:08.918Z,29.90
2019-01-09T02:18:40.598Z,29.30
2019-01-09T02:21:18.289Z,30.50
2019-01-09T02:24:15.618Z,29.70
2019-01-09T02:26:53.061Z,29.60
2019-01-09T02:29:36.479Z,30.00
2019-01-09T02:32:13.957Z,29.80
2019-01-09T02:34:42.468Z,29.80
2019-01-09T02:37:11.022Z,30.20
2019-01-09T02:39:39.562Z,30.60
2019-01-09T02:42:08.127Z,30.40
2019-01-09T02:44:36.679Z,37.60
2019-01-09T02:47:05.360Z,29.90
2019-01-09T02:49:33.992Z,30.90
2019-01-09T02:52:02.562Z,32.60
2019-01-09T02:54:31.183Z,30.70
2019-01-09T02:56:59.768Z,31.30
2019-01-09T02:59:28.321Z,29.90
2019-01-09T03:01:57.010Z,30.80
2019-01-09T03:04:25.659Z,30.40
2019-01-09T03:06:54.287Z,29.10
2019-01-09T03:09:22.975Z,30.00
2019-01-09T03:11:51.880Z,31.50
2019-01-09T03:14:20.512Z,31.00
2019-01-09T03:16:49.121Z,30.60
2019-01-09T03:19:17.762Z,30.80
2019-01-09T03:21:46.329Z,29.80
2019-01-09T03:24:14.929Z,30.50
2019-01-09T03:26:43.490Z,31.50
2019-01-09T03:29:12.118Z,31.10
2019-01-09T03:31:40.703Z,30.40
2019-01-09T03:34:09.268Z,30.30
2019-01-09T03:36:37.896Z,29.60
2019-01-09T03:39:06.812Z,29.00
2019-01-09T03:41:35.370Z,27.90
2019-01-09T03:44:03.923Z,28.10
2019-01-09T03:46:32.557Z,29.30
2019-01-09T03:49:01.167Z,30.90
2019-01-09T03:51:29.683Z,30.90
2019-01-09T03:53:58.288Z,29.90
2019-01-09T03:56:26.849Z,30.20
2019-01-09T03:58:55.410Z,29.80
2019-01-09T04:01:24.023Z,30.50
2019-01-09T04:03:52.563Z,30.50
2019-01-09T04:06:21.503Z,29.90
2019-01-09T04:08:50.182Z,29.60
2019-01-09T04:11:18.665Z,28.20
2019-01-09T04:13:47.309Z,28.40
2019-01-09T04:16:15.931Z,28.90
2019-01-09T04:18:44.489Z,28.70
2019-01-09T04:21:12.989Z,29.30
2019-01-09T04:23:41.674Z,30.30
2019-01-09T04:26:10.151Z,31.10
2019-01-09T04:28:38.781Z,30.30
2019-01-09T04:31:07.387Z,29.90
2019-01-09T04:33:35.934Z,28.60
2019-01-09T04:36:04.499Z,28.50
2019-01-09T04:38:33.174Z,29.30
2019-01-09T04:41:01.791Z,28.30
2019-01-09T04:43:30.421Z,28.20
2019-01-09T04:45:58.950Z,28.10
2019-01-09T04:48:27.519Z,29.00
2019-01-09T04:50:56.156Z,28.70
2019-01-09T04:53:24.831Z,28.30
2019-01-09T04:55:53.458Z,28.90
2019-01-09T04:58:25.039Z,28.60
2019-01-09T05:00:53.639Z,28.00
2019-01-09T05:03:22.286Z,27.20
2019-01-09T05:05:50.924Z,26.60
2019-01-09T05:08:19.608Z,28.00
2019-01-09T05:10:48.096Z,27.30
2019-01-09T05:13:16.730Z,27.60
2019-01-09T05:15:45.415Z,27.20
2019-01-09T05:18:14.039Z,27.20
2019-01-09T05:20:42.664Z,28.20
2019-01-09T05:23:11.593Z,29.20
2019-01-09T05:25:40.264Z,29.20
2019-01-09T05:28:08.894Z,29.40
2019-01-09T05:30:37.458Z,28.60
2019-01-09T05:33:06.103Z,29.20
2019-01-09T05:35:35.187Z,30.20
2019-01-09T05:38:03.852Z,29.60
2019-01-09T05:40:32.483Z,30.00
2019-01-09T05:43:00.971Z,30.20
2019-01-09T05:45:29.646Z,30.10
2019-01-09T05:47:59.187Z,29.90
2019-01-09T05:50:27.841Z,29.40
2019-01-09T05:52:56.511Z,28.90
2019-01-09T05:55:25.094Z,27.90
2019-01-09T05:57:54.149Z,28.60
2019-01-09T06:00:22.835Z,29.70
2019-01-09T06:02:51.397Z,29.30
2019-01-09T06:05:19.959Z,29.00
2019-01-09T06:07:48.649Z,28.00
2019-01-09T06:10:17.269Z,26.90
2019-01-09T06:12:45.834Z,26.70
2019-01-09T06:15:14.510Z,26.00
2019-01-09T06:17:43.128Z,25.90
2019-01-09T06:20:11.680Z,27.00
2019-01-09T06:22:40.352Z,26.00
2019-01-09T06:25:08.929Z,25.50
2019-01-09T06:27:37.490Z,25.00
2019-01-09T06:30:10.049Z,25.50
2019-01-09T06:32:38.688Z,24.60
2019-01-09T06:35:08.813Z,24.20
2019-01-09T06:37:37.480Z,24.40
2019-01-09T06:40:07.547Z,24.40
2019-01-09T06:42:36.172Z,23.90
2019-01-09T06:45:05.348Z,23.60
2019-01-09T06:47:33.976Z,23.30
2019-01-09T06:50:07.346Z,23.50
2019-01-09T06:52:36.009Z,24.00
2019-01-09T06:55:04.612Z,23.70
2019-01-09T06:57:33.148Z,23.30
2019-01-09T07:00:01.856Z,23.20
2019-01-09T07:02:30.454Z,23.40
2019-01-09T07:04:59.011Z,23.30
2019-01-09T07:07:35.840Z,23.70
2019-01-09T07:09:57.872Z,24.00
2019-01-09T07:12:26.325Z,23.70
2019-01-09T07:14:54.932Z,24.10
2019-01-09T07:17:23.568Z,23.60
2019-01-09T07:19:52.149Z,23.60
2019-01-09T07:22:20.764Z,23.30
2019-01-09T07:24:49.332Z,23.40
2019-01-09T07:27:17.961Z,23.70
2019-01-09T07:29:46.490Z,23.70
2019-01-09T07:32:15.129Z,24.90
2019-01-09T07:34:43.689Z,25.10
2019-01-09T07:37:12.318Z,24.80
2019-01-09T07:39:40.865Z,25.20
2019-01-09T07:42:09.520Z,25.40
2019-01-09T07:44:38.116Z,25.70
2019-01-09T07:47:06.740Z,25.50
2019-01-09T07:49:35.234Z,26.00
2019-01-09T07:52:04.799Z,26.30
2019-01-09T07:54:33.425Z,27.00
2019-01-09T07:57:01.989Z,26.50
2019-01-09T07:59:30.660Z,26.40
2019-01-09T08:01:59.291Z,26.10
2019-01-09T08:04:27.795Z,25.60
2019-01-09T08:06:56.858Z,25.00
2019-01-09T08:09:25.496Z,24.90
2019-01-09T08:11:53.984Z,24.80
2019-01-09T08:14:22.586Z,24.80
2019-01-09T08:16:51.215Z,24.70
2019-01-09T08:19:19.785Z,24.90
2019-01-09T08:21:48.395Z,24.90
2019-01-09T08:24:16.992Z,24.80
2019-01-09T08:26:45.560Z,25.90
2019-01-09T08:29:14.352Z,25.70
2019-01-09T08:31:42.975Z,25.60
2019-01-09T09:31:04.750Z,82.00
2019-01-09T09:38:30.334Z,83.50
2019-01-09T09:40:58.928Z,83.90
2019-01-09T09:53:20.871Z,82.00
2019-01-09T09:58:19.014Z,78.20
2019-01-09T10:00:47.664Z,81.20
2019-01-09T10:05:44.936Z,78.70
2019-01-09T10:13:10.078Z,82.20
2019-01-09T10:15:38.726Z,82.70
2019-01-09T10:23:04.039Z,78.20
2019-01-09T10:25:32.629Z,76.90
2019-01-09T10:32:57.835Z,76.70
2019-01-09T10:35:26.525Z,75.50
2019-01-09T10:37:55.178Z,66.00
2019-01-09T10:40:23.743Z,79.80
2019-01-09T10:42:52.364Z,75.50
2019-01-09T10:45:21.613Z,80.50
2019-01-09T10:47:50.222Z,83.50
2019-01-09T10:50:19.822Z,82.20
2019-01-09T10:52:48.454Z,81.70
2019-01-09T10:55:18.217Z,81.50
2019-01-09T11:00:19.347Z,80.70
2019-01-09T11:02:47.927Z,64.90
2019-01-09T11:12:42.756Z,74.80
2019-01-09T11:15:12.105Z,79.70
2019-01-09T11:17:40.740Z,72.90
2019-01-09T11:20:17.439Z,82.20
2019-01-09T11:22:46.089Z,78.60
2019-01-09T11:27:44.716Z,79.90
2019-01-09T11:30:16.144Z,77.60
2019-01-09T11:32:44.718Z,78.70
2019-01-09T11:35:15.347Z,77.50
2019-01-09T11:37:44.362Z,77.80
2019-01-09T11:42:43.148Z,80.40
2019-01-09T11:45:14.093Z,81.10
2019-01-09T11:47:42.688Z,63.40
2019-01-09T11:50:12.482Z,81.00
2019-01-09T11:52:41.050Z,80.30
2019-01-09T11:55:11.300Z,78.50
2019-01-09T11:57:39.994Z,79.20
2019-01-09T12:00:19.049Z,77.50
2019-01-09T12:02:47.666Z,57.80
2019-01-09T12:07:44.519Z,83.00
2019-01-09T12:10:18.402Z,78.60
2019-01-09T12:12:49.445Z,84.50
2019-01-09T12:15:18.619Z,82.80
2019-01-09T12:17:47.233Z,82.80
2019-01-09T12:20:17.712Z,84.00
2019-01-09T12:22:46.439Z,83.90
2019-01-09T12:25:15.048Z,83.30
2019-01-09T12:32:42.082Z,79.40
2019-01-09T12:40:08.207Z,76.90
2019-01-09T12:45:13.873Z,57.40
2019-01-09T12:50:14.316Z,76.10
2019-01-09T13:00:16.620Z,58.90
2019-01-09T13:02:46.036Z,83.80
2019-01-09T13:10:11.208Z,78.90
2019-01-09T13:15:11.365Z,75.70
2019-01-09T13:22:40.623Z,74.70
2019-01-09T13:25:10.363Z,73.20
2019-01-09T13:27:38.999Z,71.90
2019-01-09T13:30:13.659Z,74.60
2019-01-09T13:32:42.305Z,77.10
2019-01-09T13:35:10.888Z,75.60
2019-01-09T13:40:16.094Z,77.90
2019-01-09T13:42:44.740Z,79.50
2019-01-09T13:50:13.252Z,76.90
2019-01-09T13:52:41.831Z,76.30
2019-01-09T13:55:12.363Z,74.70
2019-01-09T14:00:12.807Z,79.20
2019-01-09T14:02:41.447Z,80.90
2019-01-09T14:10:11.047Z,77.70
2019-01-09T14:12:39.852Z,77.70
2019-01-09T14:17:38.848Z,79.90
2019-01-09T14:20:10.530Z,76.90
2019-01-09T14:22:39.203Z,75.40
2019-01-09T14:25:12.319Z,78.80
2019-01-09T14:27:41.037Z,78.00
2019-01-09T14:30:12.950Z,79.70
2019-01-09T14:35:09.901Z,78.80
2019-01-09T14:40:10.410Z,77.90
2019-01-09T14:45:09.358Z,76.60
2019-01-09T15:29:55.552Z,81.60
2019-01-09T15:34:52.566Z,71.70
2019-01-09T15:42:17.975Z,72.00
2019-01-09T15:44:46.557Z,77.00
2019-01-09T15:47:15.134Z,65.10
2019-01-09T15:54:40.227Z,81.70
2019-01-09T15:59:37.268Z,77.10
2019-01-09T16:02:05.914Z,77.50
2019-01-09T16:09:31.561Z,74.90
2019-01-09T16:12:00.252Z,76.00
2019-01-09T16:14:28.917Z,73.60
2019-01-09T16:16:57.556Z,82.00
2019-01-09T16:19:26.247Z,83.60
2019-01-09T16:24:23.154Z,83.20
2019-01-09T16:26:51.767Z,84.00
2019-01-09T16:29:20.355Z,45.60
2019-01-09T16:31:49.013Z,46.30
2019-01-09T16:34:17.628Z,44.30
2019-01-09T16:36:46.205Z,44.80
2019-01-09T16:39:14.763Z,43.40
2019-01-09T16:41:43.388Z,45.80
2019-01-09T16:44:12.030Z,43.20
2019-01-09T16:46:40.614Z,39.10
2019-01-09T16:49:09.640Z,39.70
2019-01-09T16:51:38.294Z,39.80
2019-01-09T16:54:06.889Z,40.10
2019-01-09T16:56:36.222Z,39.50
2019-01-09T16:59:04.998Z,40.10
2019-01-09T17:01:34.046Z,38.60
2019-01-09T17:04:02.654Z,38.70
2019-01-09T17:06:31.253Z,37.60
2019-01-09T17:09:00.353Z,38.80
2019-01-09T17:11:29.028Z,38.90
2019-01-09T17:13:57.672Z,38.40
2019-01-09T17:16:26.321Z,37.70
2019-01-09T17:18:55.019Z,38.10
2019-01-09T17:21:24.068Z,39.00
2019-01-09T17:23:52.636Z,40.20
2019-01-09T17:26:21.248Z,41.40
2019-01-09T17:28:50.270Z,40.90
2019-01-09T17:31:18.950Z,39.80
2019-01-09T17:33:48.385Z,39.30
2019-01-09T17:36:17.030Z,40.60
2019-01-09T17:38:46.102Z,40.70
2019-01-09T17:41:14.800Z,40.00
2019-01-09T17:43:43.450Z,40.20
2019-01-09T17:46:12.439Z,38.10
2019-01-09T17:48:41.571Z,38.10
2019-01-09T17:51:10.217Z,36.90
2019-01-09T17:53:38.886Z,36.30
2019-01-09T17:56:07.546Z,35.10
2019-01-09T17:58:36.114Z,35.00
2019-01-09T18:01:05.964Z,34.50
2019-01-09T18:03:34.614Z,32.50
2019-01-09T18:06:03.348Z,37.70
2019-01-09T18:08:32.007Z,33.00
2019-01-09T18:11:00.625Z,35.10
2019-01-09T18:13:29.204Z,35.10
2019-01-09T18:15:57.787Z,33.90
2019-01-09T18:18:26.468Z,36.90
2019-01-09T18:20:55.118Z,38.10
2019-01-09T18:23:23.816Z,55.50
2019-01-09T18:25:52.531Z,51.40
2019-01-09T18:28:21.178Z,54.20
2019-01-09T18:30:53.124Z,53.60
2019-01-09T18:38:25.154Z,41.60
2019-01-09T18:49:17.808Z,49.50
2019-01-09T18:54:20.232Z,50.30
2019-01-09T19:01:47.080Z,50.50
2019-01-09T19:04:15.720Z,52.80
2019-01-09T19:06:44.406Z,53.20
2019-01-09T19:09:14.204Z,55.40
2019-01-09T19:11:50.442Z,53.40
2019-01-09T19:16:41.364Z,45.30
2019-01-09T19:19:10.015Z,47.80
2019-01-09T19:24:07.060Z,47.60
2019-01-09T19:26:35.681Z,48.20
2019-01-09T19:29:04.367Z,48.50
2019-01-09T19:31:33.020Z,48.30
2019-01-09T19:34:01.677Z,47.40
2019-01-09T19:36:30.370Z,46.00
2019-01-09T19:38:58.939Z,44.30
2019-01-09T19:41:27.592Z,46.60
2019-01-09T19:43:56.279Z,46.00
2019-01-09T19:48:56.553Z,35.50
2019-01-09T19:51:25.174Z,45.70
2019-01-09T20:03:47.451Z,50.80
2019-01-09T20:06:16.140Z,51.70
2019-01-09T20:08:44.789Z,56.00
2019-01-09T20:11:13.460Z,53.10
2019-01-09T20:13:42.151Z,55.00
2019-01-09T20:16:10.795Z,55.50
2019-01-09T20:18:39.435Z,53.90
2019-01-09T20:21:08.082Z,51.70
2019-01-09T20:23:36.850Z,48.80
2019-01-09T20:26:05.306Z,50.30
2019-01-09T20:28:33.999Z,49.10
2019-01-09T20:33:30.978Z,48.20
2019-01-09T20:35:59.661Z,48.00
2019-01-09T20:38:28.307Z,44.10
2019-01-09T20:40:57.038Z,44.70
2019-01-09T20:43:25.737Z,45.60
2019-01-09T20:48:22.714Z,46.20
2019-01-09T20:50:51.440Z,50.90
2019-01-09T20:53:19.981Z,45.90
2019-01-09T20:55:48.511Z,51.90
2019-01-09T20:58:17.219Z,51.80
2019-01-09T21:00:46.828Z,55.00
2019-01-09T21:03:15.488Z,55.30
2019-01-09T21:05:44.156Z,54.00
2019-01-09T21:08:12.843Z,50.80
2019-01-09T21:10:41.513Z,46.80
2019-01-09T21:13:10.198Z,47.90
2019-01-09T21:18:07.031Z,49.90
2019-01-09T21:20:35.575Z,53.30
2019-01-09T21:23:04.326Z,50.40
2019-01-09T21:25:32.836Z,52.00
2019-01-09T21:28:01.472Z,54.10
2019-01-09T21:30:30.039Z,54.40
2019-01-09T21:32:58.701Z,53.50
2019-01-09T21:47:50.626Z,51.30
2019-01-09T21:50:23.345Z,50.20
2019-01-09T21:52:51.995Z,49.90
2019-01-09T21:55:20.563Z,51.50
2019-01-09T21:57:49.177Z,48.30
2019-01-09T22:00:22.706Z,43.30
2019-01-09T22:02:51.339Z,47.70
2019-01-09T22:07:48.515Z,45.90
2019-01-09T22:10:23.050Z,39.30
2019-01-09T22:12:51.693Z,49.30
2019-01-09T22:15:20.278Z,52.10
2019-01-09T22:17:48.917Z,49.90
2019-01-09T22:20:19.297Z,49.70
2019-01-09T22:22:48.444Z,51.50
2019-01-09T22:25:17.014Z,48.90
2019-01-09T22:27:45.702Z,51.60
2019-01-09T22:30:19.825Z,49.30
2019-01-09T22:32:48.461Z,54.60
2019-01-09T22:37:45.868Z,49.50
2019-01-09T22:42:44.396Z,50.60
2019-01-09T22:45:13.465Z,47.80
2019-01-09T22:47:42.084Z,51.70
2019-01-09T22:55:10.189Z,66.50
2019-01-09T23:00:31.919Z,67.50
2019-01-09T23:05:29.379Z,60.80
2019-01-09T23:12:55.534Z,71.70
2019-01-09T23:15:24.167Z,66.80
2019-01-09T23:17:52.664Z,74.60
2019-01-09T23:20:21.254Z,68.40
2019-01-09T23:22:49.881Z,70.50
2019-01-09T23:32:43.416Z,59.50
2019-01-09T23:37:41.088Z,61.30
2019-01-09T23:40:12.071Z,64.00
2019-01-09T23:45:13.281Z,60.10
2019-01-09T23:50:11.105Z,63.30
2019-01-09T23:55:09.618Z,43.50
2019-01-09T23:57:38.104Z,57.20
